Time;durP1;ratioP1;P1;durP2;ratioP2;P2;SDS_P1;SDS_P2;PMS_P1;PMS_P2;Temp;Humidity;BMP_temperature;BMP_pressure;BME280_temperature;BME280_humidity;BME280_pressure;Samples;Min_cycle;Max_cycle;Signal;HPM_P1;HPM_P2
2022/01/06 00:00:28;;;;;;;40.27;22.00;;;;;;;4.74;100.00;98735.09;5091076;28;20557;-74
2022/01/06 00:02:55;;;;;;;41.00;22.70;;;;;;;4.84;100.00;98757.78;5091288;28;20215;-74
2022/01/06 00:05:22;;;;;;;39.00;20.90;;;;;;;4.83;100.00;98774.72;5091096;28;20574;-73
2022/01/06 00:07:49;;;;;;;34.20;19.90;;;;;;;4.83;100.00;98768.78;5091505;28;20195;-73
2022/01/06 00:10:16;;;;;;;33.43;18.47;;;;;;;4.76;100.00;98773.13;5091969;28;20195;-74
2022/01/06 00:12:48;;;;;;;26.63;17.53;;;;;;;4.70;100.00;98773.25;5093142;28;20209;-73
2022/01/06 00:15:31;;;;;;;25.97;16.17;;;;;;;4.66;100.00;98775.00;5093024;28;20553;-74
2022/01/06 00:18:21;;;;;;;29.03;18.03;;;;;;;4.67;100.00;98775.84;5092885;28;20710;-74
2022/01/06 00:23:34;;;;;;;32.67;17.17;;;;;;;4.69;100.00;98774.09;5092049;28;20582;-74
2022/01/06 00:26:02;;;;;;;33.67;17.70;;;;;;;4.67;100.00;98780.91;5092890;28;20199;-74
2022/01/06 00:28:30;;;;;;;32.13;17.93;;;;;;;4.67;100.00;98774.13;5092366;28;20199;-74
2022/01/06 00:30:58;;;;;;;25.63;18.07;;;;;;;4.66;100.00;98776.69;5089462;28;20195;-74
2022/01/06 00:33:26;;;;;;;28.40;16.57;;;;;;;4.68;100.00;98780.06;5092470;28;20195;-74
2022/01/06 00:35:52;;;;;;;27.07;18.63;;;;;;;4.68;100.00;98775.81;5092324;28;20675;-74
2022/01/06 00:38:21;;;;;;;30.40;17.87;;;;;;;4.56;100.00;98754.84;5093023;28;20679;-74
2022/01/06 00:40:48;;;;;;;31.60;18.77;;;;;;;4.68;100.00;98764.81;5093099;28;20682;-74
2022/01/06 00:43:15;;;;;;;31.40;18.30;;;;;;;4.62;100.00;98768.28;5093636;28;20202;-74
2022/01/06 00:45:42;;;;;;;31.27;19.00;;;;;;;4.59;100.00;98770.03;5093058;28;20201;-74
2022/01/06 00:48:10;;;;;;;28.87;18.67;;;;;;;4.57;100.00;98769.22;5093415;28;20200;-74
2022/01/06 00:50:38;;;;;;;32.33;19.47;;;;;;;4.55;100.00;98773.50;5093100;28;20196;-74
2022/01/06 00:53:05;;;;;;;36.97;19.33;;;;;;;4.58;100.00;98763.28;5093382;28;20196;-74
2022/01/06 00:55:33;;;;;;;30.47;19.87;;;;;;;4.56;100.00;98757.38;5093248;28;20206;-74
2022/01/06 00:58:00;;;;;;;30.77;17.70;;;;;;;4.53;100.00;98754.91;5093063;28;20288;-74
2022/01/06 01:00:31;;;;;;;29.37;18.83;;;;;;;4.51;100.00;98751.56;5093350;28;20203;-74
2022/01/06 01:02:59;;;;;;;27.63;18.00;;;;;;;4.44;100.00;98734.75;5092777;28;20599;-75
2022/01/06 01:05:27;;;;;;;31.50;18.17;;;;;;;4.42;100.00;98747.50;5093013;28;20572;-74
2022/01/06 01:07:54;;;;;;;29.90;17.37;;;;;;;4.33;100.00;98751.88;5092110;28;20198;-75
2022/01/06 01:10:21;;;;;;;36.73;21.40;;;;;;;4.09;100.00;98742.91;5093028;28;20664;-74
2022/01/06 01:12:48;;;;;;;35.77;20.07;;;;;;;4.18;100.00;98751.22;5092439;28;20330;-74
2022/01/06 01:15:20;;;;;;;33.73;20.00;;;;;;;4.28;100.00;98748.53;5088862;28;20629;-74
2022/01/06 01:17:49;;;;;;;34.43;19.23;;;;;;;4.28;100.00;98743.47;5092510;28;20215;-74
2022/01/06 01:20:17;;;;;;;33.47;19.37;;;;;;;4.27;100.00;98734.19;5092313;28;21070;-75
2022/01/06 01:22:46;;;;;;;30.33;18.00;;;;;;;4.29;100.00;98722.31;5092330;28;20196;-74
2022/01/06 01:25:14;;;;;;;32.37;18.63;;;;;;;4.29;100.00;98714.72;5090900;28;20215;-74
2022/01/06 01:27:43;;;;;;;31.63;19.07;;;;;;;4.20;100.00;98706.38;5092321;28;20195;-75
2022/01/06 01:30:14;;;;;;;31.03;17.97;;;;;;;4.20;100.00;98718.25;5092422;28;20729;-74
2022/01/06 01:32:46;;;;;;;27.73;18.07;;;;;;;4.20;100.00;98711.44;5092137;28;20195;-74
2022/01/06 01:35:13;;;;;;;29.10;19.07;;;;;;;4.17;100.00;98706.44;5092446;28;20205;-74
2022/01/06 01:37:40;;;;;;;29.20;17.87;;;;;;;4.18;100.00;98713.19;5092459;28;20601;-74
2022/01/06 01:40:11;;;;;;;26.30;17.37;;;;;;;4.13;100.00;98699.75;5092089;28;20198;-74
2022/01/06 01:42:40;;;;;;;27.70;17.87;;;;;;;4.20;100.00;98731.75;5092448;28;20188;-74
2022/01/06 01:45:09;;;;;;;29.30;17.80;;;;;;;4.20;100.00;98741.88;5091365;28;20199;-74
2022/01/06 01:47:43;;;;;;;26.27;17.93;;;;;;;4.15;100.00;98733.53;5090907;28;20374;-74
2022/01/06 01:50:15;;;;;;;27.73;17.90;;;;;;;4.15;100.00;98727.59;5089855;28;20199;-74
2022/01/06 01:52:44;;;;;;;27.13;16.77;;;;;;;4.12;100.00;98728.50;5090331;28;20277;-74
2022/01/06 01:55:14;;;;;;;28.77;17.90;;;;;;;4.08;100.00;98723.47;5089489;28;20618;-74
2022/01/06 01:57:41;;;;;;;28.47;16.83;;;;;;;4.08;100.00;98729.41;5085960;28;20238;-74
2022/01/06 02:00:10;;;;;;;24.80;16.90;;;;;;;3.90;100.00;98706.84;5090175;28;20686;-74
2022/01/06 02:02:37;;;;;;;26.27;17.40;;;;;;;3.95;100.00;98732.97;5090808;28;20223;-75
2022/01/06 02:05:05;;;;;;;26.90;17.17;;;;;;;3.89;100.00;98730.53;5090950;28;20729;-74
2022/01/06 02:07:33;;;;;;;29.73;16.83;;;;;;;3.91;100.00;98723.72;5089991;28;20738;-74
2022/01/06 02:10:00;;;;;;;30.43;17.47;;;;;;;3.86;100.00;98720.44;5089989;28;20675;-75
2022/01/06 02:12:35;;;;;;;28.03;18.40;;;;;;;3.90;100.00;98738.97;5089555;28;20231;-74
2022/01/06 02:15:02;;;;;;;23.83;15.97;;;;;;;3.82;100.00;98728.94;5090041;28;20208;-75
2022/01/06 02:17:29;;;;;;;28.03;18.00;;;;;;;3.84;100.00;98724.69;5089349;28;20299;-74
2022/01/06 02:19:58;;;;;;;23.83;16.70;;;;;;;3.85;100.00;98733.13;5089630;28;20199;-75
2022/01/06 02:22:25;;;;;;;26.97;17.10;;;;;;;3.75;100.00;98726.53;5088040;28;20195;-74
2022/01/06 02:24:52;;;;;;;22.47;15.57;;;;;;;3.84;100.00;98742.44;5089003;28;20207;-74
2022/01/06 02:27:20;;;;;;;24.23;17.13;;;;;;;3.77;100.00;98725.63;5091073;28;20195;-74
2022/01/06 02:29:48;;;;;;;20.60;15.50;;;;;;;3.75;100.00;98740.00;5091443;28;20195;-74
2022/01/06 02:32:16;;;;;;;24.97;16.17;;;;;;;3.75;100.00;98742.53;5091462;28;20203;-75
2022/01/06 02:34:44;;;;;;;22.40;15.03;;;;;;;3.70;100.00;98734.19;5091255;28;20241;-75
2022/01/06 02:37:13;;;;;;;26.30;15.90;;;;;;;3.72;100.00;98737.50;5091098;28;20195;-74
2022/01/06 02:39:40;;;;;;;27.67;16.90;;;;;;;3.59;100.00;98713.19;5091000;28;20206;-74
2022/01/06 02:42:08;;;;;;;25.47;16.37;;;;;;;3.73;100.00;98726.53;5091265;28;20659;-74
2022/01/06 02:44:37;;;;;;;26.47;16.90;;;;;;;3.74;100.00;98715.53;5091341;28;20218;-74
2022/01/06 02:47:05;;;;;;;27.67;17.43;;;;;;;3.72;100.00;98731.63;5091297;28;20576;-74
2022/01/06 02:49:32;;;;;;;25.67;15.90;;;;;;;3.59;100.00;98730.94;5090814;28;20729;-74
2022/01/06 02:51:59;;;;;;;27.63;16.67;;;;;;;3.54;100.00;98728.47;5090919;28;20199;-74
2022/01/06 02:54:28;;;;;;;23.10;15.30;;;;;;;3.56;100.00;98728.44;5091057;28;20199;-74
2022/01/06 02:56:55;;;;;;;18.03;15.47;;;;;;;3.57;100.00;98728.44;5087147;28;20206;-75
2022/01/06 02:59:22;;;;;;;24.53;16.13;;;;;;;3.56;100.00;98741.09;5090539;28;20268;-74
2022/01/06 03:01:49;;;;;;;22.87;15.90;;;;;;;3.58;100.00;98739.41;5090549;28;20227;-74
2022/01/06 03:04:16;;;;;;;24.60;17.00;;;;;;;3.48;100.00;98740.38;5091051;28;20691;-74
2022/01/06 03:06:43;;;;;;;22.77;16.17;;;;;;;3.42;100.00;98740.47;5090646;28;20552;-74
2022/01/06 03:09:11;;;;;;;24.47;17.43;;;;;;;3.35;100.00;98731.25;5091209;28;20191;-74
2022/01/06 03:11:42;;;;;;;36.70;18.57;;;;;;;3.28;100.00;98720.34;5090330;28;20274;-74
2022/01/06 03:14:10;;;;;;;35.77;18.47;;;;;;;3.22;100.00;98704.41;5090707;28;20195;-74
2022/01/06 03:16:37;;;;;;;30.93;19.33;;;;;;;3.42;100.00;98723.56;5090736;28;20196;-75
2022/01/06 03:19:04;;;;;;;25.33;19.17;;;;;;;3.43;100.00;98734.50;5087020;28;20234;-74
2022/01/06 03:21:31;;;;;;;33.87;18.63;;;;;;;3.49;100.00;98742.88;5089062;28;20203;-74
2022/01/06 03:23:58;;;;;;;26.87;17.80;;;;;;;3.47;100.00;98743.75;5090448;28;20226;-74
2022/01/06 03:26:25;;;;;;;28.13;19.30;;;;;;;3.43;100.00;98747.19;5090693;28;20298;-74
2022/01/06 03:28:53;;;;;;;28.83;17.83;;;;;;;3.38;100.00;98754.00;5090403;28;20278;-74
2022/01/06 03:31:20;;;;;;;27.70;18.50;;;;;;;3.43;100.00;98754.78;5090812;28;20202;-74
2022/01/06 03:33:47;;;;;;;32.37;18.77;;;;;;;3.46;100.00;98744.59;5090428;28;20196;-73
2022/01/06 03:36:14;;;;;;;34.77;18.27;;;;;;;3.48;100.00;98753.06;5090819;28;20205;-74
2022/01/06 03:38:41;;;;;;;23.37;16.10;;;;;;;3.50;100.00;98756.38;5090454;28;20217;-74
2022/01/06 03:41:08;;;;;;;27.17;16.13;;;;;;;3.51;100.00;98753.00;5090510;28;20203;-74
2022/01/06 03:43:35;;;;;;;27.70;15.97;;;;;;;3.48;100.00;98753.06;5090604;28;20199;-74
2022/01/06 03:46:03;;;;;;;22.63;16.47;;;;;;;3.46;100.00;98760.66;5090239;28;20207;-74
2022/01/06 03:48:30;;;;;;;21.07;15.47;;;;;;;3.46;100.00;98755.59;5090705;28;20209;-74
2022/01/06 03:50:57;;;;;;;25.40;15.80;;;;;;;3.46;100.00;98772.47;5090563;28;20199;-73
2022/01/06 03:53:24;;;;;;;20.73;14.70;;;;;;;3.43;100.00;98764.91;5089616;28;20200;-73
2022/01/06 03:55:50;;;;;;;19.20;14.63;;;;;;;3.47;100.00;98771.63;5090237;28;20200;-74
2022/01/06 03:58:17;;;;;;;24.00;16.87;;;;;;;3.48;100.00;98778.38;5090077;28;20695;-74
2022/01/06 04:00:44;;;;;;;29.57;15.83;;;;;;;3.48;100.00;98775.84;5090101;28;20196;-74
2022/01/06 04:03:13;;;;;;;18.47;14.90;;;;;;;3.28;100.00;98744.84;5089810;28;20226;-73
2022/01/06 04:05:40;;;;;;;22.60;16.63;;;;;;;3.42;100.00;98768.31;5089774;28;20203;-74
2022/01/06 04:08:07;;;;;;;27.17;17.47;;;;;;;3.43;100.00;98767.44;5088892;28;20195;-74
2022/01/06 04:10:34;;;;;;;24.83;15.27;;;;;;;3.42;100.00;98775.94;5088815;28;20191;-74
2022/01/06 04:13:01;;;;;;;22.30;15.93;;;;;;;3.43;100.00;98782.66;5088703;28;20586;-74
2022/01/06 04:15:28;;;;;;;18.70;14.70;;;;;;;3.38;100.00;98779.34;5087639;28;20629;-73
2022/01/06 04:17:55;;;;;;;22.90;13.47;;;;;;;3.38;100.00;98776.81;5087194;28;20218;-73
2022/01/06 04:20:23;;;;;;;17.70;13.17;;;;;;;3.30;100.00;98778.56;5088268;28;20199;-73
2022/01/06 04:22:50;;;;;;;14.87;12.27;;;;;;;3.29;100.00;98782.00;5088860;28;20590;-74
2022/01/06 04:25:17;;;;;;;20.20;12.60;;;;;;;3.31;100.00;98775.19;5091073;28;20192;-73
2022/01/06 04:27:44;;;;;;;19.83;13.60;;;;;;;3.25;100.00;98785.41;5092613;28;20576;-73
2022/01/06 04:30:12;;;;;;;22.10;13.63;;;;;;;3.23;100.00;98787.13;5093457;28;20199;-73
2022/01/06 04:32:39;;;;;;;19.53;13.40;;;;;;;3.17;100.00;98783.78;5093683;28;20206;-73
2022/01/06 04:35:08;;;;;;;16.83;12.27;;;;;;;3.10;100.00;98776.28;5092658;28;20199;-73
2022/01/06 04:37:37;;;;;;;16.50;12.07;;;;;;;3.08;100.00;98778.81;5093754;28;20681;-73
2022/01/06 04:40:05;;;;;;;16.73;12.47;;;;;;;2.95;100.00;98774.72;5093532;28;20610;-73
2022/01/06 04:42:32;;;;;;;17.83;13.57;;;;;;;2.98;100.00;98782.28;5093679;28;20655;-73
2022/01/06 04:44:59;;;;;;;19.07;13.53;;;;;;;2.96;100.00;98778.94;5093292;28;20201;-73
2022/01/06 04:47:26;;;;;;;15.27;12.70;;;;;;;2.98;100.00;98782.28;5093204;28;20199;-73
2022/01/06 04:49:53;;;;;;;14.60;13.07;;;;;;;3.02;100.00;98778.88;5093580;28;20199;-73
2022/01/06 04:52:19;;;;;;;18.00;13.23;;;;;;;2.93;100.00;98757.88;5092750;28;20203;-73
2022/01/06 04:54:48;;;;;;;15.83;12.37;;;;;;;3.07;100.00;98779.66;5093215;28;20199;-73
2022/01/06 04:57:15;;;;;;;15.93;13.67;;;;;;;3.05;100.00;98786.44;5092878;28;20195;-73
2022/01/06 04:59:42;;;;;;;19.17;12.53;;;;;;;3.04;100.00;98782.22;5093012;28;20694;-73
2022/01/06 05:02:09;;;;;;;14.23;12.73;;;;;;;3.02;100.00;98783.94;5092708;28;20227;-73
2022/01/06 05:04:35;;;;;;;14.43;12.40;;;;;;;3.04;100.00;98791.50;5092679;28;20202;-73
2022/01/06 05:07:03;;;;;;;18.73;12.73;;;;;;;3.07;100.00;98789.78;5092958;28;20192;-74
2022/01/06 05:09:29;;;;;;;13.97;11.77;;;;;;;3.07;100.00;98794.03;5092788;28;20195;-74
2022/01/06 05:11:58;;;;;;;12.73;11.13;;;;;;;3.06;100.00;98790.66;5091840;28;20203;-74
2022/01/06 05:14:25;;;;;;;14.00;11.40;;;;;;;3.08;100.00;98794.00;5092064;28;20290;-74
2022/01/06 05:16:52;;;;;;;12.83;10.77;;;;;;;3.05;100.00;98794.03;5087553;28;20213;-75
2022/01/06 05:19:19;;;;;;;15.07;11.67;;;;;;;3.00;100.00;98800.84;5091023;28;20601;-74
2022/01/06 05:21:46;;;;;;;12.83;10.43;;;;;;;3.03;100.00;98805.03;5088566;28;20207;-74
2022/01/06 05:24:15;;;;;;;14.63;10.40;;;;;;;2.99;100.00;98804.22;5089220;28;20199;-74
2022/01/06 05:26:42;;;;;;;14.27;11.10;;;;;;;3.04;100.00;98801.63;5089385;28;20227;-73
2022/01/06 05:29:12;;;;;;;12.37;10.67;;;;;;;3.05;100.00;98803.31;5087112;28;20200;-74
2022/01/06 05:31:40;;;;;;;13.87;11.37;;;;;;;3.03;100.00;98799.97;5084812;28;20222;-72
2022/01/06 05:34:07;;;;;;;18.77;11.30;;;;;;;3.00;100.00;98808.44;5086890;28;20552;-73
2022/01/06 05:36:35;;;;;;;15.33;11.87;;;;;;;2.99;100.00;98814.34;5087921;28;20600;-74
2022/01/06 05:39:02;;;;;;;18.70;10.93;;;;;;;2.87;100.00;98814.47;5089094;28;20219;-74
2022/01/06 05:41:32;;;;;;;17.63;11.70;;;;;;;2.84;100.00;98817.03;5083420;28;20588;-75
2022/01/06 05:43:59;;;;;;;18.17;11.33;;;;;;;2.68;100.00;98807.06;5082917;28;20291;-73
2022/01/06 05:46:28;;;;;;;12.07;10.47;;;;;;;2.73;100.00;98836.53;5088747;28;20199;-74
2022/01/06 05:48:54;;;;;;;13.33;11.10;;;;;;;2.69;100.00;98834.00;5089413;28;20204;-73
2022/01/06 05:51:21;;;;;;;14.17;10.60;;;;;;;2.56;100.00;98825.69;5090596;28;20229;-73
2022/01/06 05:53:50;;;;;;;14.60;10.40;;;;;;;2.62;100.00;98823.09;5089660;28;20221;-73
2022/01/06 05:56:17;;;;;;;16.67;9.20;;;;;;;2.56;100.00;98813.88;5090355;28;20290;-73
2022/01/06 05:58:43;;;;;;;13.47;9.60;;;;;;;2.62;100.00;98818.03;5086979;28;20598;-73
2022/01/06 06:01:10;;;;;;;13.57;10.23;;;;;;;2.51;100.00;98810.56;5088898;28;20693;-73
2022/01/06 06:03:39;;;;;;;14.23;9.97;;;;;;;2.62;100.00;98823.09;5088165;28;20223;-73
2022/01/06 06:06:06;;;;;;;10.77;9.63;;;;;;;2.54;100.00;98830.78;5088520;28;20203;-73
2022/01/06 06:08:32;;;;;;;11.20;10.03;;;;;;;2.44;100.00;98830.84;5090178;28;20191;-73
2022/01/06 06:11:00;;;;;;;10.80;9.70;;;;;;;2.41;100.00;98839.28;5088702;28;20571;-72
2022/01/06 06:13:27;;;;;;;11.27;10.03;;;;;;;2.42;100.00;98824.97;5089034;28;20207;-73
2022/01/06 06:15:54;;;;;;;13.57;11.27;;;;;;;2.37;100.00;98837.63;5089918;28;20199;-73
2022/01/06 06:18:20;;;;;;;19.47;11.33;;;;;;;2.29;100.00;98818.31;5089840;28;20215;-73
2022/01/06 06:20:49;;;;;;;15.50;12.93;;;;;;;2.36;100.00;98840.19;5088816;28;20247;-73
2022/01/06 06:23:16;;;;;;;23.43;13.97;;;;;;;2.32;100.00;98838.50;5084849;28;20677;-73
2022/01/06 06:25:42;;;;;;;21.27;14.30;;;;;;;2.37;100.00;98846.91;5089818;28;20214;-73
2022/01/06 06:28:09;;;;;;;26.73;16.50;;;;;;;2.40;100.00;98831.69;5087229;28;20209;-73
2022/01/06 06:30:36;;;;;;;20.63;16.07;;;;;;;2.41;100.00;98839.28;5088761;28;20231;-73
2022/01/06 06:33:03;;;;;;;26.03;16.70;;;;;;;2.44;100.00;98830.84;5087999;28;20199;-73
2022/01/06 06:35:31;;;;;;;26.93;15.77;;;;;;;2.47;100.00;98825.75;5089309;28;20203;-73
2022/01/06 06:37:59;;;;;;;24.67;15.97;;;;;;;2.55;100.00;98836.66;5086925;28;20200;-60
2022/01/06 06:40:26;;;;;;;31.70;17.83;;;;;;;2.64;100.00;98836.59;5090076;28;20211;-61
2022/01/06 06:42:53;;;;;;;28.63;17.83;;;;;;;2.64;100.00;98826.47;5089133;28;20211;-60
2022/01/06 06:45:22;;;;;;;32.17;16.37;;;;;;;2.73;100.00;98836.53;5090005;28;20195;-59
2022/01/06 06:47:48;;;;;;;48.83;18.63;;;;;;;2.70;100.00;98818.84;5089202;28;20199;-60
2022/01/06 06:50:16;;;;;;;60.80;19.43;;;;;;;2.85;100.00;98841.47;5090577;28;20282;-60
2022/01/06 06:52:44;;;;;;;26.73;16.20;;;;;;;2.86;100.00;98849.91;5090881;28;20613;-60
2022/01/06 06:55:12;;;;;;;33.10;19.77;;;;;;;2.91;100.00;98854.06;5090536;28;20648;-61
2022/01/06 06:57:39;;;;;;;27.00;18.93;;;;;;;2.92;100.00;98848.16;5088394;28;20203;-72
2022/01/06 07:00:09;;;;;;;62.70;25.03;;;;;;;2.90;100.00;98849.88;5089539;28;20548;-70
2022/01/06 07:02:35;;;;;;;36.60;24.00;;;;;;;2.98;100.00;98847.28;5090424;28;20229;-72
2022/01/06 07:05:03;;;;;;;29.53;18.07;;;;;;;2.98;100.00;98853.19;5091196;28;20195;-72
2022/01/06 07:07:30;;;;;;;21.90;14.90;;;;;;;2.98;100.00;98858.25;5089245;28;20705;-71
2022/01/06 07:09:57;;;;;;;30.40;17.83;;;;;;;3.07;100.00;98858.16;5089348;28;20195;-70
2022/01/06 07:12:25;;;;;;;22.27;15.20;;;;;;;3.16;100.00;98858.09;5088066;28;20206;-68
2022/01/06 07:14:52;;;;;;;24.33;15.77;;;;;;;3.20;100.00;98863.13;5089538;28;20194;-69
2022/01/06 07:17:19;;;;;;;19.40;14.80;;;;;;;3.28;100.00;98856.28;5088485;28;20203;-71
2022/01/06 07:19:46;;;;;;;25.83;15.37;;;;;;;3.26;100.00;98865.59;5086130;28;20214;-70
2022/01/06 07:22:13;;;;;;;21.87;15.40;;;;;;;3.30;100.00;98860.47;5088150;28;20202;-71
2022/01/06 07:24:40;;;;;;;26.83;14.83;;;;;;;3.33;100.00;98877.38;5087647;28;20203;-70
2022/01/06 07:27:07;;;;;;;22.43;16.37;;;;;;;3.15;100.00;98845.44;5087917;28;20201;-71
2022/01/06 07:29:36;;;;;;;25.07;15.83;;;;;;;3.31;100.00;98881.59;5090098;28;20197;-68
2022/01/06 07:32:03;;;;;;;47.10;18.17;;;;;;;3.35;100.00;98888.31;5089788;28;20209;-68
2022/01/06 07:34:30;;;;;;;26.27;16.33;;;;;;;3.44;100.00;98888.22;5089578;28;20203;-71
2022/01/06 07:36:57;;;;;;;22.57;14.33;;;;;;;3.55;100.00;98896.56;5089678;28;20203;-70
2022/01/06 07:39:24;;;;;;;20.47;14.33;;;;;;;3.61;100.00;98901.56;5088856;28;20223;-72
2022/01/06 07:41:51;;;;;;;25.63;15.23;;;;;;;3.66;100.00;98892.19;5088935;28;20214;-72
2022/01/06 07:44:18;;;;;;;23.77;15.03;;;;;;;3.76;100.00;98891.25;5087525;28;20196;-71
2022/01/06 07:46:47;;;;;;;20.93;15.60;;;;;;;3.85;100.00;98886.06;5088670;28;20619;-72
2022/01/06 07:49:14;;;;;;;35.27;23.80;;;;;;;3.86;100.00;98897.91;5089217;28;20663;-73
2022/01/06 07:51:41;;;;;;;236.70;79.90;;;;;;;3.79;100.00;98895.44;5088960;28;20195;-72
2022/01/06 07:54:08;;;;;;;285.57;86.67;;;;;;;3.82;100.00;98895.41;5084909;28;20203;-72
2022/01/06 07:56:35;;;;;;;131.47;43.23;;;;;;;3.84;100.00;98884.41;5084805;28;20206;-71
2022/01/06 08:12:06;;;;;;;38.87;24.23;;;;;;;5.00;100.00;98902.25;5145981;27;20539;-71
2022/01/06 08:14:33;;;;;;;37.27;19.90;;;;;;;5.01;100.00;98892.94;5151116;27;20603;-71
2022/01/06 08:17:00;;;;;;;24.23;15.40;;;;;;;5.00;100.00;98894.63;5139417;27;20205;-71
2022/01/06 08:19:27;;;;;;;25.67;17.83;;;;;;;4.98;100.00;98896.34;5141474;27;20205;-71
2022/01/06 08:21:54;;;;;;;59.50;24.70;;;;;;;5.02;100.00;98889.53;5132185;27;20625;-71
2022/01/06 08:24:21;;;;;;;254.90;87.50;;;;;;;5.07;100.00;98896.19;5129803;27;20258;-71
2022/01/06 08:26:48;;;;;;;261.73;81.50;;;;;;;5.15;100.00;98899.47;5132713;27;20189;-74
2022/01/06 08:29:16;;;;;;;140.73;63.80;;;;;;;5.19;100.00;98900.25;5133919;27;20198;-74
2022/01/06 08:31:43;;;;;;;63.70;34.43;;;;;;;5.25;100.00;98903.53;5138227;27;20222;-72
2022/01/06 08:34:10;;;;;;;27.40;18.27;;;;;;;5.33;100.00;98915.28;5136356;27;20194;-73
2022/01/06 08:36:37;;;;;;;75.53;37.37;;;;;;;5.37;100.00;98904.16;5133782;27;20200;-72
2022/01/06 08:39:04;;;;;;;65.80;33.50;;;;;;;5.44;100.00;98910.84;5138895;27;20206;-71
2022/01/06 08:41:31;;;;;;;29.60;17.93;;;;;;;5.55;100.00;98919.97;5137247;27;20214;-72
2022/01/06 08:43:57;;;;;;;25.97;16.90;;;;;;;5.64;100.00;98914.72;5135642;27;20653;-72
2022/01/06 08:46:26;;;;;;;25.90;18.50;;;;;;;5.66;100.00;98904.50;5134387;27;20200;-73
2022/01/06 08:48:53;;;;;;;29.57;15.53;;;;;;;5.77;100.00;98910.22;5138077;27;20206;-73
2022/01/06 08:51:20;;;;;;;64.90;34.13;;;;;;;5.85;100.00;98913.44;5140408;27;20196;-72
2022/01/06 08:53:47;;;;;;;273.00;93.73;;;;;;;5.91;100.00;98912.56;5134489;27;20204;-72
2022/01/06 08:56:14;;;;;;;183.37;63.07;;;;;;;5.93;100.00;98908.25;5140157;27;20198;-71
2022/01/06 08:58:40;;;;;;;57.87;27.97;;;;;;;6.03;100.00;98912.31;5138276;27;20204;-71
2022/01/06 09:01:07;;;;;;;44.80;23.30;;;;;;;6.08;100.00;98916.44;5135939;27;20210;-72
2022/01/06 09:03:36;;;;;;;38.50;20.40;;;;;;;6.13;100.00;98907.00;5121162;27;20198;-72
2022/01/06 09:06:03;;;;;;;265.87;79.77;;;;;;;6.23;100.00;98911.03;5135394;27;20194;-72
2022/01/06 09:08:30;;;;;;;71.97;29.90;;;;;;;6.25;100.00;98904.22;5139612;27;20656;-71
2022/01/06 09:10:57;;;;;;;47.37;28.00;;;;;;;6.32;100.00;98908.31;5140514;27;20696;-72
2022/01/06 09:13:24;;;;;;;21.37;16.53;;;;;;;6.43;100.00;98917.44;5122321;27;20213;-72
2022/01/06 09:15:51;;;;;;;189.93;93.80;;;;;;;6.48;100.00;98910.53;5124771;27;20688;-70
2022/01/06 09:18:18;;;;;;;41.03;19.40;;;;;;;6.56;100.00;98913.75;5123870;27;20715;-72
2022/01/06 09:20:46;;;;;;;34.43;16.67;;;;;;;6.55;100.00;98905.28;5123048;27;20309;-72
2022/01/06 09:23:13;;;;;;;21.97;16.07;;;;;;;6.70;100.00;98911.72;5122405;27;20627;-71
2022/01/06 09:25:40;;;;;;;22.73;17.07;;;;;;;6.75;100.00;98917.56;5116569;27;20202;-71
2022/01/06 09:28:07;;;;;;;22.80;14.27;;;;;;;6.81;100.00;98919.97;5120650;27;20628;-73
2022/01/06 09:30:34;;;;;;;40.10;24.40;;;;;;;6.86;100.00;98918.13;5119756;27;20202;-71
2022/01/06 09:33:01;;;;;;;36.97;19.30;;;;;;;6.95;100.00;98912.81;5122910;27;20202;-72
2022/01/06 09:35:28;;;;;;;20.37;14.13;;;;;;;7.00;100.00;98913.56;5119914;27;20214;-71
2022/01/06 09:37:56;;;;;;;312.57;221.17;;;;;;;7.09;100.00;98915.91;5121726;27;20675;-70
2022/01/06 09:40:23;;;;;;;40.87;22.53;;;;;;;7.18;100.00;98910.56;5126047;27;20258;-71
2022/01/06 09:42:50;;;;;;;72.23;27.33;;;;;;;7.26;100.00;98906.13;5120200;27;20198;-72
2022/01/06 09:45:17;;;;;;;18.03;13.47;;;;;;;7.35;100.00;98912.72;5125850;27;20202;-72
2022/01/06 09:47:44;;;;;;;61.57;27.37;;;;;;;7.38;100.00;98895.63;5125492;27;20207;-72
2022/01/06 09:50:14;;;;;;;359.60;114.13;;;;;;;7.50;100.00;98891.06;5118250;27;20194;-71
2022/01/06 09:52:40;;;;;;;291.13;76.27;;;;;;;7.57;100.00;98888.34;5117599;27;20198;-72
2022/01/06 11:18:50;;;;;;;30.42;20.05;;;;;;;9.43;100.00;98859.69;5064799;22;1329133;-68
2022/01/06 11:21:20;;;;;;;36.93;21.37;;;;;;;9.54;100.00;98846.53;5047163;28;20247;-66
2022/01/06 11:23:47;;;;;;;52.10;24.80;;;;;;;9.61;100.00;98852.28;5049959;28;20201;-67
2022/01/06 11:26:17;;;;;;;34.47;19.17;;;;;;;9.66;100.00;98855.53;5046466;28;20193;-67
2022/01/06 11:28:54;;;;;;;18.67;15.73;;;;;;;9.74;100.00;98853.50;5045966;28;20193;-67
2022/01/06 11:31:24;;;;;;;25.37;16.57;;;;;;;9.74;100.00;98848.38;5049719;28;20665;-67
2022/01/06 11:33:53;;;;;;;26.43;17.07;;;;;;;9.73;100.00;98846.72;5039920;28;20292;-68
2022/01/06 11:36:24;;;;;;;29.63;19.03;;;;;;;9.73;100.00;98851.81;5048205;28;20221;-67
2022/01/06 11:38:53;;;;;;;111.23;67.40;;;;;;;9.76;100.00;98852.56;5047220;28;20205;-67
2022/01/06 11:41:20;;;;;;;22.83;15.73;;;;;;;9.86;100.00;98853.91;5043222;28;20529;-68
2022/01/06 11:43:49;;;;;;;33.80;24.17;;;;;;;9.89;100.00;98851.22;5043021;28;20769;-67
2022/01/06 11:46:16;;;;;;;25.43;17.93;;;;;;;9.89;100.00;98858.06;5047366;28;20246;-67
2022/01/06 11:48:48;;;;;;;37.93;23.17;;;;;;;9.94;100.00;98851.91;5039475;28;20680;-67
2022/01/06 11:51:28;;;;;;;31.37;20.40;;;;;;;10.05;100.00;98841.25;5046212;28;20197;-67
2022/01/06 11:53:55;;;;;;;24.80;19.40;;;;;;;10.14;100.00;98842.69;5043449;28;20203;-67
2022/01/06 11:56:23;;;;;;;28.90;19.43;;;;;;;10.18;100.00;98842.50;5043440;28;20220;-67
2022/01/06 11:59:01;;;;;;;30.47;22.57;;;;;;;10.26;100.00;98827.72;5048432;28;20577;-67
2022/01/06 12:01:29;;;;;;;23.40;19.23;;;;;;;10.32;100.00;98837.72;5036379;28;20219;-66
2022/01/06 12:03:56;;;;;;;26.53;18.37;;;;;;;10.39;100.00;98828.91;5047769;28;20211;-67
2022/01/06 12:06:26;;;;;;;24.43;18.03;;;;;;;10.44;100.00;98831.28;5043409;28;20544;-67
2022/01/06 12:08:54;;;;;;;32.80;19.47;;;;;;;10.47;100.00;98832.00;5045145;28;20200;-66
2022/01/06 12:11:23;;;;;;;22.90;15.77;;;;;;;10.52;100.00;98824.97;5043373;28;20200;-67
2022/01/06 12:13:52;;;;;;;25.70;16.67;;;;;;;10.59;100.00;98820.44;5042593;28;20219;-66
2022/01/06 12:16:27;;;;;;;38.30;21.20;;;;;;;10.63;100.00;98827.09;5040067;28;20251;-67
2022/01/06 12:18:54;;;;;;;32.23;18.73;;;;;;;10.70;100.00;98827.69;5044563;28;20579;-67
2022/01/06 12:21:22;;;;;;;63.57;25.57;;;;;;;10.71;100.00;98816.56;5045201;28;20204;-67
2022/01/06 12:24:01;;;;;;;117.97;44.10;;;;;;;10.82;100.00;98815.25;5038910;28;20204;-68
2022/01/06 12:26:29;;;;;;;1999.90;999.90;;;;;;;10.90;100.00;98820.03;5048198;28;20197;-68
2022/01/06 12:28:55;;;;;;;169.83;94.47;;;;;;;10.97;100.00;98818.91;5039668;28;20235;-67
2022/01/06 12:31:24;;;;;;;30.90;19.47;;;;;;;10.98;100.00;98828.28;5044239;28;20209;-67
2022/01/06 12:33:53;;;;;;;18.53;16.27;;;;;;;10.93;100.00;98809.66;5045531;28;20193;-67
2022/01/06 12:36:22;;;;;;;23.80;15.37;;;;;;;11.04;100.00;98812.63;5038187;28;20568;-66
2022/01/06 12:38:50;;;;;;;20.90;14.87;;;;;;;11.12;100.00;98818.25;5047579;28;20197;-65
2022/01/06 12:41:25;;;;;;;25.27;14.40;;;;;;;11.11;100.00;98802.94;5039709;28;20576;-67
2022/01/06 12:43:53;;;;;;;22.13;14.73;;;;;;;11.15;100.00;98813.00;5038375;28;20208;-66
2022/01/06 12:46:20;;;;;;;18.87;16.00;;;;;;;11.22;100.00;98811.84;5043236;28;20271;-67
2022/01/06 12:48:48;;;;;;;22.90;18.73;;;;;;;11.29;100.00;98813.25;5041006;28;20224;-68
2022/01/06 12:51:19;;;;;;;42.53;17.50;;;;;;;11.36;100.00;98817.25;5039385;28;20208;-67
2022/01/06 12:53:49;;;;;;;22.63;17.40;;;;;;;11.43;100.00;98816.09;5050473;28;20657;-67
2022/01/06 12:56:29;;;;;;;28.27;16.87;;;;;;;11.50;98.76;98817.47;5038859;28;20688;-68
2022/01/06 12:58:56;;;;;;;28.63;16.80;;;;;;;11.54;98.17;98813.88;5041516;28;20668;-67